createdAt,value
2022-11-25T00:00:21.045Z,99.99
2022-11-25T00:01:21.027Z,99.99
2022-11-25T00:02:21.098Z,99.99
2022-11-25T00:03:20.864Z,99.99
2022-11-25T00:04:20.720Z,99.99
2022-11-25T00:05:20.985Z,99.99
2022-11-25T00:06:20.694Z,99.99
2022-11-25T00:07:21.118Z,99.99
2022-11-25T00:08:20.651Z,99.99
2022-11-25T00:09:20.887Z,99.99
2022-11-25T00:10:20.901Z,99.99
2022-11-25T00:11:20.644Z,99.99
2022-11-25T00:12:20.840Z,99.99
2022-11-25T00:13:20.574Z,99.99
2022-11-25T00:14:20.556Z,99.99
2022-11-25T00:15:20.799Z,99.99
2022-11-25T00:16:20.609Z,99.99
2022-11-25T00:17:20.764Z,99.99
2022-11-25T00:18:20.770Z,99.99
2022-11-25T00:19:20.732Z,99.99
2022-11-25T00:20:20.457Z,99.99
2022-11-25T00:21:20.730Z,99.99
2022-11-25T00:22:20.421Z,99.99
2022-11-25T00:23:20.406Z,99.99
2022-11-25T00:24:20.384Z,99.99
2022-11-25T00:25:20.632Z,99.99
2022-11-25T00:26:20.612Z,99.99
2022-11-25T00:27:20.598Z,99.99
2022-11-25T00:28:20.575Z,99.99
2022-11-25T00:29:20.562Z,99.99
2022-11-25T00:30:20.304Z,99.99
2022-11-25T00:31:20.591Z,99.99
2022-11-25T00:32:20.251Z,99.99
2022-11-25T00:33:20.494Z,99.99
2022-11-25T00:34:20.240Z,99.99
2022-11-25T00:35:20.623Z,99.99
2022-11-25T00:36:20.186Z,99.99
2022-11-25T00:37:20.448Z,99.99
2022-11-25T00:38:20.408Z,99.81
2022-11-25T00:39:20.387Z,99.9
2022-11-25T00:40:20.120Z,98.86
2022-11-25T00:41:20.097Z,98.2
2022-11-25T00:42:20.080Z,98.39
2022-11-25T00:43:20.315Z,98.3
2022-11-25T00:44:20.051Z,99.24
2022-11-25T00:45:20.281Z,99.9
2022-11-25T00:46:20.170Z,99.52
2022-11-25T00:47:20.250Z,99.99
2022-11-25T00:48:20.237Z,99.99
2022-11-25T00:49:19.960Z,99.99
2022-11-25T00:50:20.230Z,99.99
2022-11-25T00:51:19.926Z,99.99
2022-11-25T00:52:20.169Z,99.99
2022-11-25T00:53:20.169Z,99.99
2022-11-25T00:54:19.874Z,99.99
2022-11-25T00:55:19.854Z,99.99
2022-11-25T00:56:19.844Z,99.99
2022-11-25T00:57:19.827Z,99.99
2022-11-25T00:58:19.808Z,99.1
2022-11-25T00:59:19.786Z,98.58
2022-11-25T01:00:19.774Z,97.3
2022-11-25T01:01:19.863Z,97.44
2022-11-25T01:02:20.292Z,97.44
2022-11-25T01:03:19.972Z,97.44
2022-11-25T01:04:19.980Z,96.4
2022-11-25T01:05:19.946Z,96.21
2022-11-25T01:06:19.945Z,96.4
2022-11-25T01:07:20.058Z,95.45
2022-11-25T01:08:19.889Z,95.36
2022-11-25T01:09:19.891Z,95.55
2022-11-25T01:10:19.851Z,95.83
2022-11-25T01:11:19.831Z,95.36
2022-11-25T01:12:19.815Z,95.45
2022-11-25T01:13:19.544Z,94.89
2022-11-25T01:14:19.522Z,94.23
2022-11-25T01:15:19.504Z,93.84
2022-11-25T01:16:19.857Z,93.18
2022-11-25T01:17:19.723Z,92.99
2022-11-25T01:18:19.711Z,93.37
2022-11-25T01:19:19.437Z,93.27
2022-11-25T01:20:19.419Z,93.84
2022-11-25T01:21:19.403Z,93.46
2022-11-25T01:22:19.663Z,94.13
2022-11-25T01:23:19.628Z,94.42
2022-11-25T01:24:19.607Z,94.23
2022-11-25T01:25:19.605Z,92.71
2022-11-25T01:26:19.313Z,92.05
2022-11-25T01:27:19.551Z,92.33
2022-11-25T01:28:19.277Z,92.33
2022-11-25T01:29:19.266Z,92.52
2022-11-25T01:30:19.499Z,92.61
2022-11-25T01:31:19.630Z,92.9
2022-11-25T01:32:19.459Z,93.37
2022-11-25T01:33:19.445Z,93.65
2022-11-25T01:34:19.421Z,94.51
2022-11-25T01:35:19.408Z,95.17
2022-11-25T01:36:19.386Z,94.37
2022-11-25T01:37:19.118Z,93.94
2022-11-25T01:38:19.376Z,92.71
2022-11-25T01:39:19.334Z,91.86
2022-11-25T01:40:19.337Z,91.38
2022-11-25T01:41:19.324Z,91.48
2022-11-25T01:42:19.034Z,91.91
2022-11-25T01:43:19.011Z,91.81
2022-11-25T01:44:19.257Z,91.57
2022-11-25T01:45:18.973Z,90.91
2022-11-25T01:46:19.535Z,91.1
2022-11-25T01:47:19.196Z,91.81
2022-11-25T01:48:19.169Z,93.08
2022-11-25T01:49:19.157Z,93.51
2022-11-25T01:50:19.136Z,94.65
2022-11-25T01:51:19.120Z,94.84
2022-11-25T01:52:19.105Z,94.37
2022-11-25T01:53:19.086Z,93.51
2022-11-25T01:54:18.837Z,92.76
2022-11-25T01:55:18.805Z,92.1
2022-11-25T01:56:19.030Z,91.62
2022-11-25T01:57:19.041Z,92.47
2022-11-25T01:58:18.993Z,93.23
2022-11-25T01:59:18.722Z,92.94
2022-11-25T02:00:18.958Z,91.72
2022-11-25T02:01:18.839Z,91.43
2022-11-25T02:02:19.092Z,90.39
2022-11-25T02:03:18.651Z,90.67
2022-11-25T02:04:18.884Z,90.58
2022-11-25T02:05:18.872Z,91.62
2022-11-25T02:06:18.591Z,91.91
2022-11-25T02:07:18.927Z,91.53
2022-11-25T02:08:18.814Z,91.81
2022-11-25T02:09:18.796Z,91.81
2022-11-25T02:10:18.797Z,92.94
2022-11-25T02:11:18.503Z,93.7
2022-11-25T02:12:18.740Z,94.37
2022-11-25T02:13:18.745Z,94.37
2022-11-25T02:14:18.710Z,93.8
2022-11-25T02:15:18.718Z,93.51
2022-11-25T02:16:18.489Z,93.61
2022-11-25T02:17:18.393Z,93.13
2022-11-25T02:18:18.377Z,92.66
2022-11-25T02:19:18.362Z,91.72
2022-11-25T02:20:18.345Z,91.53
2022-11-25T02:21:18.323Z,91.62
2022-11-25T02:22:18.302Z,90.96
2022-11-25T02:23:18.545Z,90.48
2022-11-25T02:24:18.524Z,90.11
2022-11-25T02:25:18.507Z,90.2
2022-11-25T02:26:18.257Z,89.54
2022-11-25T02:27:18.213Z,89.54
2022-11-25T02:28:18.456Z,89.63
2022-11-25T02:29:18.466Z,89.35
2022-11-25T02:30:18.173Z,89.63
2022-11-25T02:31:18.251Z,89.25
2022-11-25T02:32:18.127Z,89.25
2022-11-25T02:33:18.103Z,89.54
2022-11-25T02:34:18.345Z,89.92
2022-11-25T02:35:18.063Z,90.01
2022-11-25T02:36:18.307Z,90.3
2022-11-25T02:37:18.030Z,91.24
2022-11-25T02:38:18.268Z,91.24
2022-11-25T02:39:18.249Z,91.43
2022-11-25T02:40:17.976Z,91.62
2022-11-25T02:41:18.314Z,91.62
2022-11-25T02:42:18.218Z,91.62
2022-11-25T02:43:18.176Z,91.72
2022-11-25T02:44:18.158Z,92.14
2022-11-25T02:45:18.165Z,92.33
2022-11-25T02:46:24.156Z,92.71
2022-11-25T02:47:17.848Z,92.9
2022-11-25T02:48:18.091Z,92.71
2022-11-25T02:49:18.063Z,92.9
2022-11-25T02:50:17.798Z,93.09
2022-11-25T02:51:18.030Z,92.9
2022-11-25T02:52:17.761Z,92.99
2022-11-25T02:53:17.738Z,92.99
2022-11-25T02:54:17.724Z,92.61
2022-11-25T02:55:17.704Z,92.8
2022-11-25T02:56:17.681Z,93.09
2022-11-25T02:57:17.662Z,93.18
2022-11-25T02:58:17.929Z,92.99
2022-11-25T02:59:18.090Z,92.99
2022-11-25T03:00:18.120Z,92.52
2022-11-25T03:01:18.234Z,92.43
2022-11-25T03:02:18.362Z,92.9
2022-11-25T03:03:18.054Z,92.99
2022-11-25T03:04:18.039Z,92.8
2022-11-25T03:05:18.032Z,93.47
2022-11-25T03:06:18.106Z,93.37
2022-11-25T03:07:17.840Z,93.66
2022-11-25T03:08:17.710Z,93.09
2022-11-25T03:09:17.690Z,92.52
2022-11-25T03:10:17.932Z,92.52
2022-11-25T03:11:17.915Z,91.58
2022-11-25T03:12:17.892Z,91.58
2022-11-25T03:13:17.619Z,91.1
2022-11-25T03:14:17.626Z,91.29
2022-11-25T03:15:17.835Z,91.2
2022-11-25T03:16:18.041Z,91.29
2022-11-25T03:17:17.831Z,91.29
2022-11-25T03:18:17.775Z,91.39
2022-11-25T03:19:17.503Z,91.2
2022-11-25T03:20:17.745Z,91.77
2022-11-25T03:21:17.587Z,91.58
2022-11-25T03:22:17.701Z,91.67
2022-11-25T03:23:17.434Z,92.05
2022-11-25T03:24:17.409Z,91.48
2022-11-25T03:25:17.393Z,91.86
2022-11-25T03:26:17.728Z,92.33
2022-11-25T03:27:17.611Z,92.61
2022-11-25T03:28:17.339Z,92.9
2022-11-25T03:29:17.321Z,92.71
2022-11-25T03:30:17.329Z,93.18
2022-11-25T03:31:17.844Z,92.8
2022-11-25T03:32:17.655Z,93.09
2022-11-25T03:33:17.527Z,92.52
2022-11-25T03:50:23.837Z,90.82
2022-11-25T03:51:23.777Z,90.63
2022-11-25T03:52:23.504Z,89.87
2022-11-25T03:53:23.477Z,89.4
2022-11-25T03:54:23.707Z,89.59
2022-11-25T03:55:23.789Z,89.31
2022-11-25T03:56:23.666Z,89.69
2022-11-25T03:57:23.651Z,89.97
2022-11-25T03:58:23.626Z,89.87
2022-11-25T03:59:23.354Z,90.44
2022-11-25T04:00:23.328Z,90.34
2022-11-25T04:01:23.457Z,90.3
2022-11-25T04:02:23.673Z,90.96
2022-11-25T04:03:23.291Z,91.24
2022-11-25T04:04:23.508Z,91.24
2022-11-25T04:05:23.637Z,91.05
2022-11-25T04:06:23.519Z,90.96
2022-11-25T04:07:23.301Z,91.34
2022-11-25T04:08:23.428Z,91.34
2022-11-25T04:09:23.415Z,90.96
2022-11-25T04:10:23.132Z,89.73
2022-11-25T04:11:23.118Z,89.73
2022-11-25T04:12:23.098Z,89.64
2022-11-25T04:13:23.081Z,89.73
2022-11-25T04:14:23.062Z,89.54
2022-11-25T04:15:23.395Z,89.36
2022-11-25T04:16:23.430Z,89.64
2022-11-25T04:17:23.256Z,89.92
2022-11-25T04:18:22.985Z,89.64
2022-11-25T04:19:22.962Z,89.73
2022-11-25T04:20:23.198Z,89.64
2022-11-25T04:21:22.929Z,89.54
2022-11-25T04:22:23.246Z,89.54
2022-11-25T04:23:23.144Z,88.88
2022-11-25T04:24:22.868Z,88.88
2022-11-25T04:25:23.111Z,89.54
2022-11-25T04:26:23.084Z,89.64
2022-11-25T04:27:22.913Z,88.98
2022-11-25T04:28:23.052Z,89.5
2022-11-25T04:29:23.035Z,89.73
2022-11-25T04:30:23.108Z,89.12
2022-11-25T04:31:22.828Z,88.6
2022-11-25T04:32:22.717Z,88.26
2022-11-25T04:33:22.700Z,88.36
2022-11-25T04:34:22.675Z,88.45
2022-11-25T04:35:22.662Z,88.26
2022-11-25T04:36:22.644Z,89.12
2022-11-25T04:37:22.621Z,88.83
2022-11-25T04:38:22.909Z,88.83
2022-11-25T04:39:22.873Z,88.6
2022-11-25T04:40:22.714Z,88.07
2022-11-25T04:41:22.806Z,88.36
2022-11-25T04:42:22.528Z,87.7
2022-11-25T04:43:22.766Z,88.07
2022-11-25T04:44:22.747Z,88.26
2022-11-25T04:45:25.736Z,88.26
2022-11-25T04:46:22.880Z,88.45
2022-11-25T04:47:22.523Z,88.74
2022-11-25T04:48:22.414Z,89.12
2022-11-25T04:49:22.394Z,88.74
2022-11-25T04:50:22.774Z,88.64
2022-11-25T04:51:22.356Z,88.74
2022-11-25T04:52:22.598Z,89.02
2022-11-25T04:53:22.575Z,88.93
2022-11-25T04:54:22.610Z,89.69
2022-11-25T04:55:22.537Z,89.02
2022-11-25T04:56:22.522Z,89.4
2022-11-25T04:57:22.503Z,90.16
2022-11-25T04:58:22.485Z,89.78
2022-11-25T04:59:22.207Z,89.36
2022-11-25T05:00:22.290Z,89.21
2022-11-25T05:01:22.294Z,89.02
2022-11-25T05:02:22.651Z,89.12
2022-11-25T05:03:22.390Z,88.93
2022-11-25T05:04:22.374Z,89.02
2022-11-25T05:05:22.511Z,89.12
2022-11-25T05:06:22.334Z,89.21
2022-11-25T05:07:22.411Z,89.12
2022-11-25T05:08:22.043Z,89.02
2022-11-25T05:09:22.274Z,88.74
2022-11-25T05:10:22.312Z,88.36
2022-11-25T05:11:22.003Z,87.79
2022-11-25T05:12:22.227Z,87.23
2022-11-25T05:13:21.947Z,87.23
2022-11-25T05:14:21.928Z,86.94
2022-11-25T05:15:21.915Z,87.6
2022-11-25T05:16:22.250Z,87.23
2022-11-25T05:17:22.140Z,86.94
2022-11-25T05:18:22.108Z,86.28
2022-11-25T05:19:21.832Z,86.75
2022-11-25T05:20:21.812Z,86.56
2022-11-25T05:21:21.796Z,86.85
2022-11-25T05:22:21.782Z,86.85
2022-11-25T05:23:22.204Z,87.04
2022-11-25T05:24:21.996Z,87.04
2022-11-25T05:25:21.976Z,87.32
2022-11-25T05:26:22.010Z,87.7
2022-11-25T05:27:21.684Z,87.79
2022-11-25T05:28:21.921Z,87.51
2022-11-25T05:29:21.647Z,87.51
2022-11-25T05:30:21.891Z,88.07
2022-11-25T05:31:22.389Z,87.6
2022-11-25T05:32:22.174Z,87.51
2022-11-25T05:33:22.154Z,87.88
2022-11-25T05:34:21.877Z,88.17
2022-11-25T05:35:21.864Z,88.55
2022-11-25T05:36:22.096Z,88.17
2022-11-25T05:37:26.523Z,88.36
2022-11-25T05:38:21.804Z,88.17
2022-11-25T05:39:21.789Z,88.64
2022-11-25T05:40:22.021Z,88.74
2022-11-25T05:41:21.747Z,88.74
2022-11-25T05:42:22.031Z,88.26
2022-11-25T05:43:21.976Z,88.26
2022-11-25T05:44:25.246Z,88.17
2022-11-25T05:45:21.933Z,88.17
2022-11-25T05:46:21.836Z,87.98
2022-11-25T05:47:21.896Z,88.07
2022-11-25T05:48:21.619Z,88.36
2022-11-25T05:49:21.599Z,88.55
2022-11-25T05:50:21.580Z,88.26
2022-11-25T05:51:21.820Z,88.17
2022-11-25T05:52:21.802Z,88.26
2022-11-25T05:53:21.781Z,88.36
2022-11-25T05:54:21.761Z,88.55
2022-11-25T05:55:21.747Z,88.55
2022-11-25T05:56:21.723Z,89.21
2022-11-25T05:57:21.455Z,88.83
2022-11-25T05:58:21.736Z,88.83
2022-11-25T05:59:21.417Z,88.74
2022-11-25T06:00:28.419Z,88.83
2022-11-25T06:01:21.659Z,88.64
2022-11-25T06:02:21.477Z,88.74
2022-11-25T06:03:21.795Z,88.74
2022-11-25T06:04:21.325Z,89.02
2022-11-25T06:05:21.305Z,88.93
2022-11-25T06:06:21.544Z,89.69
2022-11-25T06:07:21.670Z,89.4
2022-11-25T06:08:21.249Z,89.59
2022-11-25T06:09:21.229Z,89.59
2022-11-25T06:10:21.460Z,89.12
2022-11-25T06:11:21.190Z,89.17
2022-11-25T06:12:21.427Z,88.83
2022-11-25T06:13:21.152Z,88.64
2022-11-25T06:14:21.437Z,88.36
2022-11-25T06:15:21.375Z,88.55
2022-11-25T06:16:21.211Z,88.5
2022-11-25T06:17:21.332Z,88.36
2022-11-25T06:18:21.056Z,87.98
2022-11-25T06:19:21.300Z,88.07
2022-11-25T06:20:21.023Z,88.55
2022-11-25T06:21:21.257Z,88.26
2022-11-25T06:22:20.985Z,88.17
2022-11-25T06:23:21.223Z,88.45
2022-11-25T06:24:21.204Z,87.79
2022-11-25T06:25:21.325Z,88.17
2022-11-25T06:26:21.672Z,88.74
2022-11-25T06:27:21.591Z,88.26
2022-11-25T06:28:21.546Z,88.26
2022-11-25T06:29:21.250Z,88.36
2022-11-25T06:30:21.538Z,88.64
2022-11-25T06:31:21.721Z,88.07
2022-11-25T06:32:21.197Z,87.74
2022-11-25T06:33:21.432Z,87.23
2022-11-25T06:34:21.415Z,86.94
2022-11-25T06:35:21.391Z,87.51
2022-11-25T06:36:21.118Z,87.6
2022-11-25T06:37:21.097Z,87.23
2022-11-25T06:38:21.343Z,87.32
2022-11-25T06:39:21.317Z,87.51
2022-11-25T06:40:21.302Z,87.79
2022-11-25T06:41:21.282Z,87.88
2022-11-25T06:42:21.264Z,87.79
2022-11-25T06:43:20.990Z,87.13
2022-11-25T06:44:21.226Z,87.23
2022-11-25T06:45:20.947Z,87.23
2022-11-25T06:46:27.496Z,87.13
2022-11-25T06:47:21.168Z,86.85
2022-11-25T06:48:20.896Z,87.32
2022-11-25T06:49:20.872Z,86.85
2022-11-25T06:50:20.864Z,87.32
2022-11-25T06:51:20.839Z,87.13
2022-11-25T06:52:21.074Z,87.13
2022-11-25T06:53:26.345Z,86.66
2022-11-25T06:54:21.040Z,86.94
2022-11-25T06:55:21.046Z,86.75
2022-11-25T06:56:21.000Z,86.66
2022-11-25T06:57:20.978Z,87.13
2022-11-25T06:58:37.942Z,87.04
2022-11-25T06:59:20.688Z,87.41
2022-11-25T07:00:21.310Z,87.32
2022-11-25T07:01:21.420Z,87.23
2022-11-25T07:02:21.488Z,87.04
2022-11-25T07:03:21.097Z,86.85
2022-11-25T07:04:21.237Z,86.28
2022-11-25T07:05:21.214Z,85.99
2022-11-25T07:06:21.199Z,85.8
2022-11-25T07:07:21.027Z,85.14
2022-11-25T07:08:21.159Z,85.33
2022-11-25T07:09:21.140Z,85.24
2022-11-25T07:10:20.866Z,84.95
2022-11-25T07:11:20.847Z,85.52
2022-11-25T07:12:21.101Z,85.52
2022-11-25T07:13:21.851Z,85.24
2022-11-25T07:14:21.841Z,85.33
2022-11-25T07:15:21.561Z,85.14
2022-11-25T07:16:22.077Z,85.24
2022-11-25T07:17:21.779Z,85.24
2022-11-25T07:18:21.811Z,85.42
2022-11-25T07:19:21.743Z,85.05
2022-11-25T07:20:21.720Z,84.58
2022-11-25T07:21:21.452Z,84.67
2022-11-25T07:22:21.428Z,84.29
2022-11-25T07:23:21.412Z,84.2
2022-11-25T07:24:21.391Z,84.2
2022-11-25T07:25:22.268Z,84.39
2022-11-25T07:26:21.628Z,84.1
2022-11-25T07:27:21.595Z,84.77
2022-11-25T07:28:21.317Z,84.77
2022-11-25T07:30:03.418Z,84.77
2022-11-25T07:31:37.719Z,84.58
2022-11-25T07:32:37.035Z,84.48
2022-11-25T07:33:37.154Z,84.39
2022-11-25T07:34:36.746Z,84.2
2022-11-25T07:35:36.844Z,84.2
2022-11-25T07:36:36.960Z,84.58
2022-11-25T07:37:36.942Z,84.67
2022-11-25T07:38:37.340Z,84.67
2022-11-25T07:39:37.564Z,84.58
2022-11-25T07:40:36.887Z,84.77
2022-11-25T07:41:36.966Z,84.58
2022-11-25T07:42:36.594Z,84.77
2022-11-25T07:43:36.829Z,84.77
2022-11-25T07:44:36.813Z,84.48
2022-11-25T07:45:36.540Z,83.91
2022-11-25T07:46:37.021Z,84.01
2022-11-25T07:47:36.756Z,84.01
2022-11-25T07:48:36.760Z,83.91
2022-11-25T07:49:37.488Z,83.91
2022-11-25T07:50:36.450Z,83.86
2022-11-25T07:51:36.435Z,83.91
2022-11-25T07:52:36.674Z,84.23
2022-11-25T07:53:36.651Z,83.48
2022-11-25T07:54:36.649Z,83.76
2022-11-25T07:55:36.377Z,83.58
2022-11-25T07:56:36.443Z,83.48
2022-11-25T07:57:36.602Z,83.39
2022-11-25T07:58:38.404Z,83.29
2022-11-25T07:59:37.467Z,83.2
2022-11-25T08:00:36.522Z,82.72
2022-11-25T08:01:36.673Z,82.72
2022-11-25T08:02:36.655Z,82.82
2022-11-25T08:03:36.464Z,83.01
2022-11-25T08:04:36.467Z,82.91
2022-11-25T08:05:37.040Z,82.82
2022-11-25T08:06:37.133Z,82.91
2022-11-25T08:07:39.306Z,82.82
2022-11-25T08:08:36.936Z,82.72
2022-11-25T08:09:37.617Z,82.63
2022-11-25T08:10:36.905Z,82.63
2022-11-25T08:11:36.886Z,82.72
2022-11-25T08:12:36.865Z,82.91
2022-11-25T08:13:36.592Z,82.91
2022-11-25T08:14:36.831Z,82.72
2022-11-25T08:15:36.986Z,82.06
2022-11-25T08:16:36.823Z,82.82
2022-11-25T08:17:36.774Z,82.82
2022-11-25T08:18:36.756Z,82.82
2022-11-25T08:19:37.417Z,82.72
2022-11-25T08:20:36.723Z,82.25
2022-11-25T08:21:36.748Z,82.15
2022-11-25T08:22:36.427Z,82.25
2022-11-25T08:23:36.668Z,82.06
2022-11-25T08:24:36.648Z,81.87
2022-11-25T08:25:36.632Z,82.06
2022-11-25T08:26:36.356Z,82.39
2022-11-25T08:27:36.596Z,82.15
2022-11-25T08:28:36.568Z,81.77
2022-11-25T08:29:37.270Z,82.06
2022-11-25T08:30:36.534Z,81.63
2022-11-25T08:31:36.701Z,81.34
2022-11-25T08:32:36.247Z,81.34
2022-11-25T08:33:36.533Z,81.44
2022-11-25T08:34:36.475Z,81.82
2022-11-25T08:35:36.448Z,81.72
2022-11-25T08:36:36.436Z,81.34
2022-11-25T08:37:36.608Z,81.44
2022-11-25T08:38:36.391Z,81.25
2022-11-25T08:39:55.096Z,81.25
2022-11-25T08:40:36.104Z,81.25
2022-11-25T08:41:36.348Z,81.06
2022-11-25T08:42:36.326Z,81.25
2022-11-25T08:43:36.304Z,81.06
2022-11-25T08:44:36.284Z,81.06
2022-11-25T08:45:36.273Z,80.96
2022-11-25T08:46:36.242Z,81.25
2022-11-25T08:47:35.982Z,81.25
2022-11-25T08:48:36.217Z,81.25
2022-11-25T08:49:43.010Z,81.15
2022-11-25T08:50:36.180Z,81.06
2022-11-25T08:51:36.168Z,81.15
2022-11-25T08:52:36.143Z,81.63
2022-11-25T08:53:36.211Z,81.53
2022-11-25T08:54:36.110Z,81.53
2022-11-25T08:55:35.839Z,81.25
2022-11-25T08:56:36.073Z,82.2
2022-11-25T08:57:36.058Z,82.2
2022-11-25T08:58:36.051Z,82.2
2022-11-25T08:59:36.329Z,82.2
2022-11-25T09:00:35.754Z,81.44
2022-11-25T09:01:36.071Z,82.39
2022-11-25T09:02:36.107Z,82.1
2022-11-25T09:03:35.956Z,81.63
2022-11-25T09:04:35.676Z,81.82
2022-11-25T09:05:35.922Z,80.96
2022-11-25T09:06:35.650Z,80.72
2022-11-25T09:07:35.787Z,80.72
2022-11-25T09:08:35.879Z,80.53
2022-11-25T09:09:36.188Z,80.44
2022-11-25T09:10:35.586Z,80.15
2022-11-25T09:11:35.997Z,79.96
2022-11-25T09:12:35.545Z,79.96
2022-11-25T09:13:35.899Z,80.15
2022-11-25T09:14:35.510Z,79.96
2022-11-25T09:15:35.495Z,79.96
2022-11-25T09:16:35.845Z,80.15
2022-11-25T09:17:35.457Z,80.82
2022-11-25T09:18:35.473Z,80.25
2022-11-25T09:19:36.199Z,80.53
2022-11-25T09:20:35.669Z,80.91
2022-11-25T09:21:35.647Z,81.2
2022-11-25T09:22:35.632Z,81.57
2022-11-25T09:23:35.352Z,81.38
2022-11-25T09:24:35.336Z,81.86
2022-11-25T09:25:35.634Z,81.01
2022-11-25T09:26:35.597Z,81.2
2022-11-25T09:27:35.285Z,80.72
2022-11-25T09:28:35.544Z,80.34
2022-11-25T09:29:35.783Z,80.53
2022-11-25T09:30:35.235Z,80.34
2022-11-25T09:31:35.652Z,80.34
2022-11-25T09:32:35.460Z,80.72
2022-11-25T09:33:35.435Z,80.91
2022-11-25T09:34:35.753Z,80.72
2022-11-25T09:35:35.149Z,80.44
2022-11-25T09:36:35.130Z,80.53
2022-11-25T09:37:35.110Z,80.53
2022-11-25T09:38:38.862Z,79.68
2022-11-25T09:39:35.632Z,80.06
2022-11-25T09:40:35.332Z,80.1
2022-11-25T09:41:36.021Z,80.19
2022-11-25T09:42:35.701Z,80
2022-11-25T09:43:35.684Z,80.1
2022-11-25T09:44:35.927Z,80.1
2022-11-25T09:45:35.654Z,79.82
2022-11-25T09:46:36.027Z,80.67
2022-11-25T09:47:35.864Z,80.38
2022-11-25T09:48:35.859Z,80.38
2022-11-25T09:49:35.827Z,80.57
2022-11-25T09:50:35.820Z,80.86
2022-11-25T09:51:35.806Z,80.95
2022-11-25T09:52:35.790Z,81.33
2022-11-25T09:53:35.773Z,81.05
2022-11-25T09:54:35.759Z,80.48
2022-11-25T09:55:35.754Z,80.48
2022-11-25T09:56:35.715Z,80.29
2022-11-25T09:57:35.868Z,79.82
2022-11-25T09:58:35.435Z,79.63
2022-11-25T09:59:36.191Z,79.53
2022-11-25T10:00:35.649Z,79.25
2022-11-25T10:01:35.721Z,78.67
2022-11-25T10:02:35.882Z,78.58
2022-11-25T10:03:35.950Z,78.2
2022-11-25T10:04:35.336Z,77.64
2022-11-25T10:05:35.322Z,78.02
2022-11-25T10:06:35.748Z,78.11
2022-11-25T10:07:35.545Z,77.77
2022-11-25T10:08:35.519Z,77.86
2022-11-25T10:09:35.780Z,78.05
2022-11-25T10:10:35.488Z,77.77
2022-11-25T10:11:35.215Z,77.67
2022-11-25T10:12:35.194Z,77.77
2022-11-25T10:13:35.489Z,77.67
2022-11-25T10:14:35.419Z,77.48
2022-11-25T10:15:35.405Z,78.15
2022-11-25T10:16:35.568Z,78.05
2022-11-25T10:17:35.372Z,77.77
2022-11-25T10:18:35.352Z,77.9
2022-11-25T10:19:35.767Z,77.9
2022-11-25T10:20:35.068Z,78.19
2022-11-25T10:21:35.309Z,79.9
2022-11-25T10:22:35.289Z,80.75
2022-11-25T10:23:35.280Z,81.6
2022-11-25T10:24:42.715Z,82.93
2022-11-25T10:25:35.244Z,83.12
2022-11-25T10:26:35.256Z,83.5
2022-11-25T10:27:35.213Z,84.07
2022-11-25T10:28:35.201Z,83.88
2022-11-25T10:29:35.232Z,84.45
2022-11-25T10:30:35.162Z,85.17
2022-11-25T10:31:35.064Z,84.78
2022-11-25T10:32:34.872Z,85.11
2022-11-25T10:33:34.862Z,84.64
2022-11-25T10:34:35.505Z,84.92
2022-11-25T10:35:35.097Z,85.21
2022-11-25T10:36:34.819Z,85.68
2022-11-25T10:37:35.055Z,85.49
2022-11-25T10:38:35.038Z,86.82
2022-11-25T10:39:35.074Z,87.39
2022-11-25T10:40:35.065Z,87.92
2022-11-25T10:41:35.091Z,88.72
2022-11-25T10:42:35.145Z,89.2
2022-11-25T10:43:35.020Z,89.76
2022-11-25T10:44:35.050Z,93.46
2022-11-25T10:45:35.040Z,93.94
2022-11-25T10:47:14.754Z,96.78
2022-11-25T10:47:35.134Z,97.17
2022-11-25T10:48:35.252Z,97.92
2022-11-25T10:49:34.916Z,98.4
2022-11-25T10:50:34.900Z,98.3
2022-11-25T10:51:34.886Z,99.26
2022-11-25T10:52:34.875Z,99.26
2022-11-25T10:53:34.864Z,99.99
2022-11-25T10:54:34.842Z,99.99
2022-11-25T10:55:34.573Z,99.99
2022-11-25T10:56:34.826Z,99.99
2022-11-25T10:57:34.807Z,99.99
2022-11-25T10:58:34.517Z,99.99
2022-11-25T10:59:34.754Z,99.99
2022-11-25T11:00:34.744Z,99.99
2022-11-25T11:01:34.999Z,99.99
2022-11-25T11:02:34.749Z,99.99
2022-11-25T11:03:34.691Z,99.99
2022-11-25T11:04:34.610Z,99.99
2022-11-25T11:05:34.411Z,99.99
2022-11-25T11:06:34.402Z,99.99
2022-11-25T11:07:34.788Z,99.99
2022-11-25T11:08:34.623Z,99.99
2022-11-25T11:09:34.604Z,99.99
2022-11-25T11:10:34.592Z,99.99
2022-11-25T11:11:34.650Z,99.99
2022-11-25T11:12:34.564Z,99.99
2022-11-25T11:13:34.544Z,99.99
2022-11-25T11:14:34.757Z,99.99
2022-11-25T11:15:34.516Z,99.99
2022-11-25T11:16:34.338Z,99.99
2022-11-25T11:17:39.155Z,99.99
2022-11-25T11:18:34.464Z,99.99
2022-11-25T11:19:34.193Z,99.99
2022-11-25T11:20:34.195Z,99.99
2022-11-25T11:21:34.416Z,99.99
2022-11-25T11:22:34.503Z,99.99
2022-11-25T11:23:34.132Z,99.99
2022-11-25T11:24:34.309Z,99.99
2022-11-25T11:25:34.104Z,99.99
2022-11-25T11:26:34.349Z,99.99
2022-11-25T11:27:34.073Z,99.99
2022-11-25T11:28:34.314Z,99.99
2022-11-25T11:29:34.304Z,99.99
2022-11-25T11:30:34.337Z,99.99
2022-11-25T11:31:34.145Z,99.99
2022-11-25T11:32:34.254Z,99.99
2022-11-25T11:33:34.292Z,99.99
2022-11-25T11:34:34.438Z,99.99
2022-11-25T11:35:37.713Z,99.99
2022-11-25T11:36:34.196Z,99.99
2022-11-25T11:37:34.005Z,99.99
2022-11-25T11:38:33.914Z,99.99
2022-11-25T11:39:33.900Z,99.99
2022-11-25T11:40:34.140Z,99.99
2022-11-25T11:41:33.870Z,99.99
2022-11-25T11:42:34.104Z,99.99
2022-11-25T11:43:34.098Z,99.99
2022-11-25T11:44:34.397Z,99.99
2022-11-25T11:45:33.810Z,99.99
2022-11-25T11:46:33.901Z,99.99
2022-11-25T11:47:33.793Z,99.99
2022-11-25T11:48:34.019Z,99.99
2022-11-25T11:49:34.159Z,99.99
2022-11-25T11:50:33.735Z,99.99
2022-11-25T11:51:33.985Z,99.99
2022-11-25T11:52:33.960Z,99.99
2022-11-25T11:53:33.949Z,99.99
2022-11-25T11:54:34.162Z,99.99
2022-11-25T11:55:33.926Z,99.99
2022-11-25T11:56:38.507Z,99.99
2022-11-25T11:57:33.729Z,99.99
2022-11-25T11:58:33.876Z,99.99
2022-11-25T11:59:33.607Z,99.99
2022-11-25T12:00:33.843Z,99.99
2022-11-25T12:01:34.009Z,99.99
2022-11-25T12:02:34.006Z,99.99
2022-11-25T12:03:33.955Z,99.99
2022-11-25T12:04:33.794Z,99.99
2022-11-25T12:05:33.900Z,99.99
2022-11-25T12:06:33.506Z,99.99
2022-11-25T12:07:33.731Z,99.99
2022-11-25T12:08:33.474Z,99.99
2022-11-25T12:09:33.458Z,99.99
2022-11-25T12:10:33.444Z,99.99
2022-11-25T12:11:33.685Z,99.99
2022-11-25T12:12:33.411Z,99.99
2022-11-25T12:13:33.656Z,99.99
2022-11-25T12:14:33.952Z,99.99
2022-11-25T12:15:33.629Z,99.99
2022-11-25T12:16:33.767Z,99.99
2022-11-25T12:17:33.597Z,99.99
2022-11-25T12:18:33.589Z,99.99
2022-11-25T12:19:33.573Z,99.99
2022-11-25T12:20:33.313Z,99.99
2022-11-25T12:21:36.299Z,99.99
2022-11-25T12:22:33.522Z,99.99
2022-11-25T12:23:33.506Z,99.99
2022-11-25T12:24:33.534Z,99.99
2022-11-25T12:25:33.472Z,99.99
2022-11-25T12:26:33.465Z,99.99
2022-11-25T12:27:33.340Z,99.99
2022-11-25T12:28:33.179Z,99.99
2022-11-25T12:29:33.210Z,99.99
2022-11-25T12:30:33.147Z,99.99
2022-11-25T12:31:33.519Z,99.99
2022-11-25T12:32:33.382Z,99.99
2022-11-25T12:33:33.358Z,99.99
2022-11-25T12:34:33.138Z,99.99
2022-11-25T12:35:33.073Z,99.99
2022-11-25T12:36:33.313Z,99.99
2022-11-25T12:37:33.342Z,99.99
2022-11-25T12:38:33.281Z,99.99
2022-11-25T12:39:33.269Z,99.99
2022-11-25T12:40:33.256Z,99.99
2022-11-25T12:41:32.979Z,99.99
2022-11-25T12:42:33.224Z,99.99
2022-11-25T12:43:33.207Z,99.99
2022-11-25T12:44:33.209Z,99.99
2022-11-25T12:45:33.278Z,99.99
2022-11-25T12:46:32.906Z,99.99
2022-11-25T12:47:32.927Z,99.99
2022-11-25T12:48:32.876Z,99.99
2022-11-25T12:49:32.859Z,99.99
2022-11-25T12:50:33.107Z,99.99
2022-11-25T12:51:33.085Z,99.99
2022-11-25T12:52:32.819Z,99.99
2022-11-25T12:53:33.104Z,99.99
2022-11-25T12:54:33.131Z,99.99
2022-11-25T12:55:32.776Z,99.99
2022-11-25T12:56:33.019Z,99.99
2022-11-25T12:57:32.997Z,99.99
2022-11-25T12:58:32.818Z,99.99
2022-11-25T12:59:33.328Z,99.99
2022-11-25T13:00:49.344Z,99.99
2022-11-25T13:01:33.959Z,99.99
2022-11-25T13:02:33.949Z,99.99
2022-11-25T13:03:33.590Z,99.99
2022-11-25T13:04:34.046Z,99.99
2022-11-25T13:05:42.980Z,99.99
2022-11-25T13:06:33.804Z,99.99
2022-11-25T13:07:33.760Z,99.99
2022-11-25T13:08:33.516Z,99.99
2022-11-25T13:09:33.814Z,99.99
2022-11-25T13:10:33.738Z,99.99
2022-11-25T13:11:34.625Z,99.99